createdAt,value
2023-03-01T00:00:44.240Z,1025.3
2023-03-01T00:01:44.312Z,1025.3
2023-03-01T00:02:44.443Z,1025.3
2023-03-01T00:03:44.371Z,1025.2
2023-03-01T00:04:44.330Z,1025.3
2023-03-01T00:05:44.295Z,1025.3
2023-03-01T00:06:44.311Z,1025.3
2023-03-01T00:07:44.320Z,1025.3
2023-03-01T00:08:44.322Z,1025.3
2023-03-01T00:09:44.334Z,1025.3
2023-03-01T00:10:44.445Z,1025.3
2023-03-01T00:11:44.384Z,1025.2
2023-03-01T00:12:44.349Z,1025.3
2023-03-01T00:13:44.373Z,1025.2
2023-03-01T00:14:44.393Z,1025.2
2023-03-01T00:15:44.386Z,1025.2
2023-03-01T00:16:44.666Z,1025.2
2023-03-01T00:17:44.398Z,1025.2
2023-03-01T00:18:44.414Z,1025.2
2023-03-01T00:19:44.444Z,1025.2
2023-03-01T00:20:44.432Z,1025.1
2023-03-01T00:21:44.431Z,1025.2
2023-03-01T00:22:44.432Z,1025.2
2023-03-01T00:23:45.343Z,1025.2
2023-03-01T00:24:45.339Z,1025.2
2023-03-01T00:25:45.340Z,1025.1
2023-03-01T00:26:45.351Z,1025.2
2023-03-01T00:27:49.168Z,1025.2
2023-03-01T00:28:45.370Z,1025.2
2023-03-01T00:29:45.378Z,1025.2
2023-03-01T00:30:45.454Z,1025.2
2023-03-01T00:31:45.403Z,1025.2
2023-03-01T00:32:45.410Z,1025.2
2023-03-01T00:33:45.423Z,1025.2
2023-03-01T00:34:45.431Z,1025.2
2023-03-01T00:35:45.585Z,1025.3
2023-03-01T00:36:45.453Z,1025.2
2023-03-01T00:37:45.462Z,1025.2
2023-03-01T00:38:45.488Z,1025.2
2023-03-01T00:39:45.487Z,1025.2
2023-03-01T00:40:45.501Z,1025.2
2023-03-01T00:41:45.564Z,1025.3
2023-03-01T00:42:45.528Z,1025.2
2023-03-01T00:43:45.568Z,1025.2
2023-03-01T00:44:45.541Z,1025.2
2023-03-01T00:45:45.608Z,1025.2
2023-03-01T00:46:45.579Z,1025.2
2023-03-01T00:47:45.566Z,1025.2
2023-03-01T00:48:45.584Z,1025.1
2023-03-01T00:49:45.584Z,1025.2
2023-03-01T00:50:45.615Z,1025.2
2023-03-01T00:51:45.608Z,1025.2
2023-03-01T00:52:45.607Z,1025.1
2023-03-01T00:53:45.622Z,1025.2
2023-03-01T00:54:45.639Z,1025.1
2023-03-01T00:55:45.646Z,1025.1
2023-03-01T00:56:45.659Z,1025.2
2023-03-01T00:57:45.676Z,1025.2
2023-03-01T00:58:45.690Z,1025.1
2023-03-01T00:59:45.699Z,1025.2
2023-03-01T01:00:45.700Z,1025.2
2023-03-01T01:01:45.879Z,1025.1
2023-03-01T01:02:45.838Z,1025.1
2023-03-01T01:03:45.736Z,1025.1
2023-03-01T01:04:45.736Z,1025.1
2023-03-01T01:05:45.773Z,1025.1
2023-03-01T01:06:45.788Z,1025.1
2023-03-01T01:07:45.765Z,1025.1
2023-03-01T01:08:45.777Z,1025.1
2023-03-01T01:09:45.889Z,1025.1
2023-03-01T01:10:45.826Z,1025.1
2023-03-01T01:11:45.800Z,1025.1
2023-03-01T01:12:45.845Z,1025.2
2023-03-01T01:13:45.837Z,1025.1
2023-03-01T01:14:45.844Z,1025.1
2023-03-01T01:15:45.922Z,1025.0
2023-03-01T01:16:45.867Z,1025.1
2023-03-01T01:17:45.976Z,1025.1
2023-03-01T01:18:45.881Z,1025.0
2023-03-01T01:19:45.903Z,1025.0
2023-03-01T01:20:45.903Z,1025.0
2023-03-01T01:21:46.022Z,1025.0
2023-03-01T01:39:46.299Z,1024.8
2023-03-01T01:40:46.104Z,1024.8
2023-03-01T01:41:46.118Z,1024.8
2023-03-01T01:42:46.119Z,1024.8
2023-03-01T01:43:46.136Z,1024.7
2023-03-01T01:44:46.140Z,1024.6
2023-03-01T01:45:46.146Z,1024.7
2023-03-01T01:46:46.327Z,1024.7
2023-03-01T01:47:46.161Z,1024.6
2023-03-01T01:48:46.182Z,1024.7
2023-03-01T01:49:46.180Z,1024.7
2023-03-01T01:50:46.236Z,1024.7
2023-03-01T01:51:46.275Z,1024.6
2023-03-01T01:52:46.212Z,1024.6
2023-03-01T01:53:46.215Z,1024.6
2023-03-01T01:54:46.262Z,1024.6
2023-03-01T01:55:46.256Z,1024.6
2023-03-01T01:56:46.386Z,1024.7
2023-03-01T01:57:46.313Z,1024.6
2023-03-01T01:58:46.272Z,1024.7
2023-03-01T01:59:46.286Z,1024.6
2023-03-01T02:00:46.312Z,1024.7
2023-03-01T02:01:46.431Z,1024.7
2023-03-01T02:02:46.592Z,1024.6
2023-03-01T02:03:46.691Z,1024.7
2023-03-01T02:04:46.332Z,1024.6
2023-03-01T02:05:49.322Z,1024.6
2023-03-01T02:06:46.352Z,1024.6
2023-03-01T02:07:46.360Z,1024.6
2023-03-01T02:08:46.374Z,1024.6
2023-03-01T02:09:46.383Z,1024.6
2023-03-01T02:10:46.391Z,1024.6
2023-03-01T02:11:46.436Z,1024.7
2023-03-01T02:12:46.414Z,1024.6
2023-03-01T02:13:46.426Z,1024.6
2023-03-01T02:14:46.435Z,1024.6
2023-03-01T02:15:46.547Z,1024.6
2023-03-01T02:16:46.455Z,1024.6
2023-03-01T02:17:46.467Z,1024.6
2023-03-01T02:18:46.470Z,1024.5
2023-03-01T02:19:46.487Z,1024.6
2023-03-01T02:20:46.504Z,1024.6
2023-03-01T02:21:46.507Z,1024.6
2023-03-01T02:22:46.512Z,1024.5
2023-03-01T02:23:46.534Z,1024.5
2023-03-01T02:24:46.556Z,1024.5
2023-03-01T02:25:46.569Z,1024.5
2023-03-01T02:26:46.551Z,1024.6
2023-03-01T02:27:46.572Z,1024.5
2023-03-01T02:28:46.579Z,1024.4
2023-03-01T02:29:46.588Z,1024.5
2023-03-01T02:30:46.591Z,1024.4
2023-03-01T02:31:46.605Z,1024.4
2023-03-01T02:32:46.613Z,1024.5
2023-03-01T02:33:46.651Z,1024.4
2023-03-01T02:34:46.632Z,1024.3
2023-03-01T02:35:46.789Z,1024.4
2023-03-01T02:36:46.658Z,1024.4
2023-03-01T02:37:46.672Z,1024.4
2023-03-01T02:38:46.713Z,1024.4
2023-03-01T02:39:46.703Z,1024.4
2023-03-01T02:40:46.706Z,1024.4
2023-03-01T02:41:46.709Z,1024.4
2023-03-01T02:42:46.727Z,1024.4
2023-03-01T02:43:46.739Z,1024.4
2023-03-01T02:44:46.748Z,1024.4
2023-03-01T02:45:46.740Z,1024.4
2023-03-01T02:46:47.004Z,1024.4
2023-03-01T02:47:46.767Z,1024.4
2023-03-01T02:48:46.784Z,1024.4
2023-03-01T02:49:46.793Z,1024.4
2023-03-01T02:50:46.797Z,1024.3
2023-03-01T02:51:46.808Z,1024.3
2023-03-01T02:52:46.822Z,1024.3
2023-03-01T02:53:46.822Z,1024.3
2023-03-01T02:54:46.855Z,1024.3
2023-03-01T02:55:46.856Z,1024.4
2023-03-01T02:56:46.857Z,1024.4
2023-03-01T02:57:46.877Z,1024.3
2023-03-01T02:58:46.881Z,1024.3
2023-03-01T02:59:46.892Z,1024.3
2023-03-01T03:00:46.958Z,1024.3
2023-03-01T03:01:47.537Z,1024.3
2023-03-01T03:02:46.913Z,1024.3
2023-03-01T03:03:47.022Z,1024.3
2023-03-01T03:04:46.933Z,1024.3
2023-03-01T03:05:46.949Z,1024.3
2023-03-01T03:06:46.949Z,1024.2
2023-03-01T03:07:46.978Z,1024.2
2023-03-01T03:08:46.978Z,1024.3
2023-03-01T03:09:47.147Z,1024.2
2023-03-01T03:10:46.977Z,1024.3
2023-03-01T03:11:47.010Z,1024.2
2023-03-01T03:12:47.008Z,1024.2
2023-03-01T03:13:47.012Z,1024.2
2023-03-01T03:14:47.041Z,1024.2
2023-03-01T03:15:47.036Z,1024.2
2023-03-01T03:16:47.045Z,1024.4
2023-03-01T03:17:47.050Z,1024.3
2023-03-01T03:18:47.075Z,1024.3
2023-03-01T03:19:47.071Z,1024.2
2023-03-01T03:20:47.087Z,1024.3
2023-03-01T03:21:47.094Z,1024.3
2023-03-01T03:22:47.105Z,1024.3
2023-03-01T03:23:47.115Z,1024.2
2023-03-01T03:24:47.128Z,1024.3
2023-03-01T03:25:47.136Z,1024.2
2023-03-01T03:26:47.149Z,1024.2
2023-03-01T03:27:47.170Z,1024.3
2023-03-01T03:28:47.165Z,1024.2
2023-03-01T03:29:47.188Z,1024.2
2023-03-01T03:30:47.184Z,1024.2
2023-03-01T03:31:47.330Z,1024.2
2023-03-01T03:32:47.191Z,1024.2
2023-03-01T03:33:47.198Z,1024.2
2023-03-01T03:34:47.216Z,1024.1
2023-03-01T03:35:47.326Z,1024.1
2023-03-01T03:36:47.244Z,1024.2
2023-03-01T03:37:47.245Z,1024.2
2023-03-01T03:38:47.262Z,1024.2
2023-03-01T03:39:47.269Z,1024.2
2023-03-01T03:40:47.283Z,1024.2
2023-03-01T03:41:47.290Z,1024.2
2023-03-01T03:42:47.302Z,1024.2
2023-03-01T03:43:47.317Z,1024.1
2023-03-01T03:44:47.333Z,1024.1
2023-03-01T03:45:47.496Z,1024.0
2023-03-01T03:46:47.351Z,1024.1
2023-03-01T03:47:47.358Z,1024.0
2023-03-01T03:48:47.382Z,1024.1
2023-03-01T03:49:47.402Z,1024.0
2023-03-01T03:50:47.393Z,1024.0
2023-03-01T03:51:47.430Z,1024.1
2023-03-01T03:52:47.424Z,1024.1
2023-03-01T03:53:47.448Z,1024.1
2023-03-01T03:54:47.440Z,1024.1
2023-03-01T03:55:47.476Z,1024.1
2023-03-01T03:56:47.462Z,1024.0
2023-03-01T03:57:47.474Z,1024.1
2023-03-01T03:58:47.499Z,1024.1
2023-03-01T03:59:47.522Z,1024.0
2023-03-01T04:00:47.504Z,1024.1
2023-03-01T04:01:47.591Z,1024.0
2023-03-01T04:02:47.588Z,1024.0
2023-03-01T04:03:47.631Z,1024.1
2023-03-01T04:04:47.550Z,1024.0
2023-03-01T04:05:47.582Z,1023.9
2023-03-01T04:06:47.557Z,1024.0
2023-03-01T04:07:47.587Z,1024.0
2023-03-01T04:08:47.577Z,1023.9
2023-03-01T04:09:47.589Z,1023.9
2023-03-01T04:10:47.600Z,1023.9
2023-03-01T04:11:47.687Z,1024.0
2023-03-01T04:12:47.619Z,1024.0
2023-03-01T04:13:47.630Z,1023.9
2023-03-01T04:14:49.057Z,1023.9
2023-03-01T04:15:47.657Z,1023.9
2023-03-01T04:16:47.778Z,1023.9
2023-03-01T04:17:47.762Z,1023.9
2023-03-01T04:18:47.693Z,1023.9
2023-03-01T04:19:47.702Z,1024.0
2023-03-01T04:20:47.710Z,1024.0
2023-03-01T04:21:47.727Z,1023.9
2023-03-01T04:22:47.725Z,1023.9
2023-03-01T04:23:47.743Z,1024.0
2023-03-01T04:24:47.758Z,1024.0
2023-03-01T04:25:47.770Z,1024.0
2023-03-01T04:26:47.779Z,1024.0
2023-03-01T04:27:47.798Z,1024.0
2023-03-01T04:28:47.809Z,1024.0
2023-03-01T04:29:47.818Z,1024.0
2023-03-01T04:30:47.830Z,1024.0
2023-03-01T04:31:48.003Z,1024.0
2023-03-01T04:32:47.844Z,1024.0
2023-03-01T04:33:47.863Z,1023.9
2023-03-01T04:34:47.870Z,1024.0
2023-03-01T04:35:48.158Z,1023.9
2023-03-01T04:36:48.099Z,1024.0
2023-03-01T04:37:47.895Z,1024.0
2023-03-01T04:38:47.912Z,1024.0
2023-03-01T04:39:47.929Z,1024.1
2023-03-01T04:40:47.965Z,1024.0
2023-03-01T04:41:47.937Z,1023.9
2023-03-01T04:42:47.956Z,1023.9
2023-03-01T04:43:47.959Z,1024.0
2023-03-01T04:44:47.966Z,1023.9
2023-03-01T04:45:48.126Z,1023.9
2023-03-01T04:46:47.985Z,1024.0
2023-03-01T04:47:48.032Z,1023.9
2023-03-01T04:48:48.020Z,1024.0
2023-03-01T04:49:48.030Z,1023.9
2023-03-01T04:50:48.045Z,1024.0
2023-03-01T04:51:48.060Z,1023.9
2023-03-01T04:52:48.058Z,1023.9
2023-03-01T04:53:48.094Z,1024.0
2023-03-01T04:54:48.083Z,1023.9
2023-03-01T04:55:48.088Z,1024.0
2023-03-01T04:56:48.099Z,1023.9
2023-03-01T04:57:48.127Z,1024.0
2023-03-01T04:58:48.111Z,1024.0
2023-03-01T04:59:48.120Z,1024.1
2023-03-01T05:00:48.137Z,1024.0
2023-03-01T05:01:48.136Z,1024.0
2023-03-01T05:02:48.202Z,1024.0
2023-03-01T05:03:48.172Z,1024.0
2023-03-01T05:04:48.255Z,1023.9
2023-03-01T05:05:48.184Z,1023.9
2023-03-01T05:06:48.211Z,1023.9
2023-03-01T05:07:48.212Z,1023.9
2023-03-01T05:08:48.252Z,1023.8
2023-03-01T05:09:48.231Z,1023.8
2023-03-01T05:10:48.258Z,1023.8
2023-03-01T05:11:48.262Z,1023.9
2023-03-01T05:12:48.266Z,1023.9
2023-03-01T05:13:48.285Z,1023.8
2023-03-01T05:14:48.296Z,1023.8
2023-03-01T05:15:48.380Z,1023.8
2023-03-01T05:16:48.342Z,1023.9
2023-03-01T05:17:48.328Z,1023.8
2023-03-01T05:18:48.342Z,1023.9
2023-03-01T05:19:48.359Z,1023.9
2023-03-01T05:20:48.383Z,1023.9
2023-03-01T05:21:48.358Z,1023.9
2023-03-01T05:22:48.364Z,1023.9
2023-03-01T05:23:48.381Z,1023.9
2023-03-01T05:24:48.382Z,1023.8
2023-03-01T05:25:48.400Z,1023.8
2023-03-01T05:26:48.416Z,1023.9
2023-03-01T05:27:48.416Z,1023.9
2023-03-01T05:28:48.429Z,1023.9
2023-03-01T05:29:48.443Z,1023.8
2023-03-01T05:30:48.641Z,1023.9
2023-03-01T05:31:48.485Z,1023.9
2023-03-01T05:32:48.460Z,1023.9
2023-03-01T05:33:48.491Z,1023.9
2023-03-01T05:34:48.497Z,1023.9
2023-03-01T05:35:48.592Z,1023.9
2023-03-01T05:36:48.527Z,1023.8
2023-03-01T05:37:48.531Z,1023.9
2023-03-01T05:38:48.544Z,1023.8
2023-03-01T05:39:51.062Z,1023.7
2023-03-01T05:40:48.553Z,1023.8
2023-03-01T05:41:48.567Z,1023.7
2023-03-01T05:42:48.564Z,1023.7
2023-03-01T05:43:48.589Z,1023.7
2023-03-01T05:44:48.595Z,1023.7
2023-03-01T05:45:48.639Z,1023.7
2023-03-01T05:46:48.620Z,1023.7
2023-03-01T05:47:48.627Z,1023.6
2023-03-01T05:48:48.627Z,1023.7
2023-03-01T05:49:48.642Z,1023.7
2023-03-01T05:50:48.698Z,1023.7
2023-03-01T05:51:48.663Z,1023.6
2023-03-01T05:52:48.668Z,1023.7
2023-03-01T05:53:48.684Z,1023.7
2023-03-01T05:54:48.730Z,1023.6
2023-03-01T05:55:48.709Z,1023.6
2023-03-01T05:56:48.732Z,1023.5
2023-03-01T05:57:49.012Z,1023.6
2023-03-01T05:58:48.753Z,1023.6
2023-03-01T05:59:48.758Z,1023.6
2023-03-01T06:00:48.788Z,1023.6
2023-03-01T06:01:48.774Z,1023.6
2023-03-01T06:02:48.797Z,1023.6
2023-03-01T06:03:48.813Z,1023.5
2023-03-01T06:04:49.067Z,1023.5
2023-03-01T06:05:49.063Z,1023.6
2023-03-01T06:06:48.854Z,1023.6
2023-03-01T06:07:48.854Z,1023.6
2023-03-01T06:08:48.863Z,1023.5
2023-03-01T06:09:48.882Z,1023.5
2023-03-01T06:10:48.897Z,1023.5
2023-03-01T06:11:48.904Z,1023.5
2023-03-01T06:12:48.915Z,1023.6
2023-03-01T06:13:48.921Z,1023.5
2023-03-01T06:14:48.931Z,1023.5
2023-03-01T06:15:49.098Z,1023.5
2023-03-01T06:16:48.966Z,1023.5
2023-03-01T06:17:48.971Z,1023.5
2023-03-01T06:18:48.987Z,1023.5
2023-03-01T06:19:48.995Z,1023.6
2023-03-01T06:20:49.022Z,1023.6
2023-03-01T06:21:49.036Z,1023.5
2023-03-01T06:22:49.044Z,1023.6
2023-03-01T06:23:49.098Z,1023.5
2023-03-01T06:24:49.052Z,1023.5
2023-03-01T06:25:49.065Z,1023.6
2023-03-01T06:26:49.088Z,1023.5
2023-03-01T06:27:49.099Z,1023.6
2023-03-01T06:28:49.097Z,1023.6
2023-03-01T06:29:49.119Z,1023.6
2023-03-01T06:30:49.138Z,1023.5
2023-03-01T06:31:49.158Z,1023.6
2023-03-01T06:32:49.154Z,1023.6
2023-03-01T06:33:49.167Z,1023.7
2023-03-01T06:34:49.177Z,1023.6
2023-03-01T06:35:49.299Z,1023.6
2023-03-01T06:36:49.206Z,1023.6
2023-03-01T06:37:49.249Z,1023.6
2023-03-01T06:38:49.238Z,1023.7
2023-03-01T06:39:49.239Z,1023.7
2023-03-01T06:40:49.257Z,1023.7
2023-03-01T06:41:49.270Z,1023.7
2023-03-01T06:42:49.285Z,1023.6
2023-03-01T06:43:49.302Z,1023.8
2023-03-01T06:44:49.315Z,1023.7
2023-03-01T06:45:49.334Z,1023.7
2023-03-01T06:46:49.421Z,1023.7
2023-03-01T06:47:49.391Z,1023.7
2023-03-01T06:48:50.005Z,1023.8
2023-03-01T06:49:49.376Z,1023.7
2023-03-01T06:50:49.558Z,1023.8
2023-03-01T06:51:49.401Z,1023.8
2023-03-01T06:52:49.726Z,1023.7
2023-03-01T06:53:49.414Z,1023.7
2023-03-01T06:54:49.421Z,1023.8
2023-03-01T06:55:49.431Z,1023.8
2023-03-01T06:56:49.437Z,1023.8
2023-03-01T06:57:49.448Z,1023.8
2023-03-01T06:58:49.441Z,1023.7
2023-03-01T06:59:49.455Z,1023.8
2023-03-01T07:00:49.460Z,1023.8
2023-03-01T07:01:49.525Z,1023.7
2023-03-01T07:02:49.503Z,1023.7
2023-03-01T07:03:49.684Z,1023.7
2023-03-01T07:04:49.507Z,1023.7
2023-03-01T07:05:49.512Z,1023.7
2023-03-01T07:06:49.535Z,1023.7
2023-03-01T07:07:49.566Z,1023.7
2023-03-01T07:08:49.550Z,1023.7
2023-03-01T07:09:49.569Z,1023.6
2023-03-01T07:10:52.792Z,1023.7
2023-03-01T07:11:49.581Z,1023.7
2023-03-01T07:12:49.605Z,1023.7
2023-03-01T07:13:49.607Z,1023.7
2023-03-01T07:14:49.626Z,1023.7
2023-03-01T07:15:49.696Z,1023.7
2023-03-01T07:16:49.639Z,1023.7
2023-03-01T07:17:49.657Z,1023.7
2023-03-01T07:18:49.667Z,1023.5
2023-03-01T07:19:49.665Z,1023.6
2023-03-01T07:20:49.680Z,1023.6
2023-03-01T07:21:49.695Z,1023.6
2023-03-01T07:22:49.713Z,1023.6
2023-03-01T07:23:49.706Z,1023.6
2023-03-01T07:24:49.723Z,1023.5
2023-03-01T07:25:49.744Z,1023.5
2023-03-01T07:26:49.745Z,1023.5
2023-03-01T07:27:49.748Z,1023.5
2023-03-01T07:28:49.766Z,1023.6
2023-03-01T07:29:49.785Z,1023.6
2023-03-01T07:30:49.785Z,1023.5
2023-03-01T07:31:49.905Z,1023.6
2023-03-01T07:32:50.378Z,1023.6
2023-03-01T07:33:49.825Z,1023.6
2023-03-01T07:34:49.849Z,1023.5
2023-03-01T07:35:49.985Z,1023.5
2023-03-01T07:36:49.862Z,1023.5
2023-03-01T07:37:49.848Z,1023.5
2023-03-01T07:38:49.921Z,1023.5
2023-03-01T07:39:49.878Z,1023.6
2023-03-01T07:40:49.886Z,1023.6
2023-03-01T07:41:49.897Z,1023.6
2023-03-01T07:42:49.921Z,1023.5
2023-03-01T07:43:49.930Z,1023.7
2023-03-01T07:44:49.975Z,1023.6
2023-03-01T07:45:50.088Z,1023.7
2023-03-01T07:46:49.972Z,1023.7
2023-03-01T07:47:49.969Z,1023.7
2023-03-01T07:48:49.994Z,1023.7
2023-03-01T07:49:49.999Z,1023.6
2023-03-01T07:50:50.006Z,1023.7
2023-03-01T07:51:50.021Z,1023.6
2023-03-01T07:52:50.025Z,1023.6
2023-03-01T07:53:50.150Z,1023.5
2023-03-01T07:54:50.065Z,1023.6
2023-03-01T07:55:50.059Z,1023.6
2023-03-01T07:56:50.068Z,1023.6
2023-03-01T07:57:50.081Z,1023.6
2023-03-01T07:58:51.325Z,1023.5
2023-03-01T07:59:50.089Z,1023.5
2023-03-01T08:00:50.115Z,1023.5
2023-03-01T08:01:50.281Z,1023.5
2023-03-01T08:02:50.135Z,1023.5
2023-03-01T08:03:50.494Z,1023.5
2023-03-01T08:04:50.144Z,1023.6
2023-03-01T08:05:50.150Z,1023.7
2023-03-01T08:06:50.162Z,1023.7
2023-03-01T08:07:50.168Z,1023.7
2023-03-01T08:08:50.180Z,1023.7
2023-03-01T08:09:50.183Z,1023.7
2023-03-01T08:10:50.191Z,1023.7
2023-03-01T08:11:50.296Z,1023.7
2023-03-01T08:12:50.205Z,1023.7
2023-03-01T08:13:53.884Z,1023.7
2023-03-01T08:14:50.494Z,1023.7
2023-03-01T08:15:50.240Z,1023.7
2023-03-01T08:16:50.348Z,1023.7
2023-03-01T08:17:50.259Z,1023.8
2023-03-01T08:18:50.276Z,1023.7
2023-03-01T08:19:50.289Z,1023.7
2023-03-01T08:20:50.313Z,1023.8
2023-03-01T08:21:50.306Z,1023.8
2023-03-01T08:22:50.319Z,1023.8
2023-03-01T08:23:50.326Z,1023.8
2023-03-01T08:24:50.344Z,1023.7
2023-03-01T08:25:50.355Z,1023.7
2023-03-01T08:26:50.379Z,1023.7
2023-03-01T08:27:50.396Z,1023.7
2023-03-01T08:28:50.400Z,1023.7
2023-03-01T08:29:50.400Z,1023.7
2023-03-01T08:30:50.426Z,1023.7
2023-03-01T08:31:50.689Z,1023.7
2023-03-01T08:32:50.642Z,1023.7
2023-03-01T08:33:50.440Z,1023.7
2023-03-01T08:34:50.458Z,1023.8
2023-03-01T08:35:50.484Z,1023.7
2023-03-01T08:36:50.483Z,1023.7
2023-03-01T08:37:50.494Z,1023.7
2023-03-01T08:38:50.540Z,1023.7
2023-03-01T08:39:50.631Z,1023.7
2023-03-01T08:40:50.530Z,1023.8
2023-03-01T08:41:50.548Z,1023.7
2023-03-01T08:42:50.582Z,1023.8
2023-03-01T08:43:50.576Z,1023.8
2023-03-01T08:44:50.580Z,1023.7
2023-03-01T08:45:50.705Z,1023.7
2023-03-01T08:46:50.594Z,1023.8
2023-03-01T08:47:50.598Z,1023.7
2023-03-01T08:48:50.629Z,1023.8
2023-03-01T08:49:50.632Z,1023.6
2023-03-01T08:50:50.646Z,1023.7
2023-03-01T08:51:50.658Z,1023.7
2023-03-01T08:52:50.656Z,1023.7
2023-03-01T08:53:50.673Z,1023.7
2023-03-01T08:54:50.670Z,1023.7
2023-03-01T08:55:50.927Z,1023.8
2023-03-01T08:56:50.715Z,1023.8
2023-03-01T08:57:50.709Z,1023.7
2023-03-01T08:58:50.726Z,1023.7
2023-03-01T08:59:50.740Z,1023.8
2023-03-01T09:00:50.732Z,1023.7
2023-03-01T09:01:50.897Z,1023.7
2023-03-01T09:02:50.750Z,1023.8
2023-03-01T09:03:50.840Z,1023.8
2023-03-01T09:04:50.967Z,1023.8
2023-03-01T09:05:50.786Z,1023.8
2023-03-01T09:06:50.796Z,1023.8
2023-03-01T09:07:50.880Z,1023.8
2023-03-01T09:08:50.835Z,1023.7
2023-03-01T09:09:50.867Z,1023.8
2023-03-01T09:10:50.880Z,1023.8
2023-03-01T09:11:50.857Z,1023.7
2023-03-01T09:12:50.870Z,1023.7
2023-03-01T09:13:50.882Z,1023.8
2023-03-01T09:14:50.899Z,1023.8
2023-03-01T09:15:50.906Z,1023.7
2023-03-01T09:16:50.988Z,1023.7
2023-03-01T09:17:51.001Z,1023.7
2023-03-01T09:18:50.956Z,1023.8
2023-03-01T09:19:50.951Z,1023.7
2023-03-01T09:20:50.978Z,1023.8
2023-03-01T09:21:50.976Z,1023.7
2023-03-01T09:22:50.980Z,1023.7
2023-03-01T09:23:51.050Z,1023.7
2023-03-01T09:24:51.016Z,1023.7
2023-03-01T09:25:51.025Z,1023.7
2023-03-01T09:26:51.911Z,1023.7
2023-03-01T09:27:51.057Z,1023.8
2023-03-01T09:28:51.092Z,1023.7
2023-03-01T09:29:51.083Z,1023.7
2023-03-01T09:30:51.162Z,1023.7
2023-03-01T09:31:51.272Z,1023.8
2023-03-01T09:32:51.125Z,1023.7
2023-03-01T09:33:51.154Z,1023.7
2023-03-01T09:34:51.165Z,1023.7
2023-03-01T09:35:51.234Z,1023.7
2023-03-01T09:36:51.186Z,1023.7
2023-03-01T09:37:51.250Z,1023.7
2023-03-01T09:38:51.208Z,1023.6
2023-03-01T09:39:51.213Z,1023.7
2023-03-01T09:40:51.233Z,1023.7
2023-03-01T09:41:51.231Z,1023.7
2023-03-01T09:42:51.256Z,1023.7
2023-03-01T09:43:51.633Z,1023.8
2023-03-01T09:44:51.271Z,1023.8
2023-03-01T09:45:51.352Z,1023.7
2023-03-01T09:46:51.291Z,1023.7
2023-03-01T09:47:51.284Z,1023.7
2023-03-01T09:48:51.301Z,1023.7
2023-03-01T09:49:51.314Z,1023.7
2023-03-01T09:50:51.379Z,1023.8
2023-03-01T09:51:51.339Z,1023.8
2023-03-01T09:52:51.357Z,1023.7
2023-03-01T09:53:51.356Z,1023.7
2023-03-01T09:54:51.373Z,1023.8
2023-03-01T09:55:51.373Z,1023.8
2023-03-01T09:56:51.401Z,1023.8
2023-03-01T09:57:51.431Z,1023.8
2023-03-01T09:58:51.419Z,1023.8
2023-03-01T09:59:51.426Z,1023.8
2023-03-01T10:00:51.442Z,1023.8
2023-03-01T10:01:51.460Z,1023.8
2023-03-01T10:02:51.460Z,1023.8
2023-03-01T10:03:51.528Z,1023.8
2023-03-01T10:04:51.641Z,1023.8
2023-03-01T10:05:51.515Z,1023.8
2023-03-01T10:06:51.532Z,1023.7
2023-03-01T10:07:51.512Z,1023.8
2023-03-01T10:08:51.533Z,1023.7
2023-03-01T10:09:51.546Z,1023.8
2023-03-01T10:10:51.607Z,1023.7
2023-03-01T10:11:51.550Z,1023.7
2023-03-01T10:12:51.569Z,1023.7
2023-03-01T10:13:51.563Z,1023.7
2023-03-01T10:14:51.583Z,1023.7
2023-03-01T10:15:51.697Z,1023.7
2023-03-01T10:16:51.607Z,1023.8
2023-03-01T10:17:51.612Z,1023.7
2023-03-01T10:18:51.625Z,1023.7
2023-03-01T10:19:51.649Z,1023.8
2023-03-01T10:20:51.659Z,1023.7
2023-03-01T10:21:51.678Z,1023.7
2023-03-01T10:22:52.516Z,1023.7
2023-03-01T10:23:51.715Z,1023.7
2023-03-01T10:24:51.737Z,1023.6
2023-03-01T10:25:51.732Z,1023.8
2023-03-01T10:26:51.761Z,1023.7
2023-03-01T10:27:51.773Z,1023.7
2023-03-01T10:28:51.823Z,1023.7
2023-03-01T10:29:51.815Z,1023.6
2023-03-01T10:30:52.843Z,1023.6
2023-03-01T10:31:52.058Z,1023.6
2023-03-01T10:32:51.846Z,1023.6
2023-03-01T10:33:51.861Z,1023.6
2023-03-01T10:34:51.905Z,1023.6
2023-03-01T10:35:51.981Z,1023.6
2023-03-01T10:36:51.891Z,1023.5
2023-03-01T10:37:51.901Z,1023.6
2023-03-01T10:38:51.936Z,1023.6
2023-03-01T10:39:51.942Z,1023.5
2023-03-01T10:40:52.199Z,1023.6
2023-03-01T10:41:52.033Z,1023.5
2023-03-01T10:42:51.974Z,1023.6
2023-03-01T10:43:51.999Z,1023.6
2023-03-01T10:44:51.985Z,1023.6
2023-03-01T10:45:52.006Z,1023.6
2023-03-01T10:46:52.008Z,1023.5
2023-03-01T10:47:52.029Z,1023.5
2023-03-01T10:48:52.033Z,1023.5
2023-03-01T10:49:52.050Z,1023.5
2023-03-01T10:50:52.051Z,1023.5
2023-03-01T10:51:52.208Z,1023.5
2023-03-01T10:52:52.068Z,1023.4
2023-03-01T10:53:52.082Z,1023.5
2023-03-01T10:54:52.088Z,1023.5
2023-03-01T10:55:52.102Z,1023.5
2023-03-01T10:56:52.124Z,1023.5
2023-03-01T10:57:52.137Z,1023.5
2023-03-01T10:58:52.143Z,1023.5
2023-03-01T10:59:52.157Z,1023.4
2023-03-01T11:00:52.264Z,1023.4
2023-03-01T11:01:52.360Z,1023.4
2023-03-01T11:02:52.246Z,1023.4
2023-03-01T11:03:52.198Z,1023.4
2023-03-01T11:04:52.366Z,1023.4
2023-03-01T11:05:52.232Z,1023.4
2023-03-01T11:06:52.237Z,1023.3
2023-03-01T11:07:52.258Z,1023.4
2023-03-01T11:08:52.282Z,1023.4
2023-03-01T11:09:52.287Z,1023.4
2023-03-01T11:10:52.288Z,1023.4
2023-03-01T11:11:52.303Z,1023.4
2023-03-01T11:12:52.319Z,1023.5
2023-03-01T11:13:52.319Z,1023.4
2023-03-01T11:14:52.340Z,1023.3
2023-03-01T11:15:52.445Z,1023.4
2023-03-01T11:16:52.353Z,1023.5
2023-03-01T11:18:09.229Z,1023.4
2023-03-01T11:18:52.378Z,1023.3
2023-03-01T11:20:03.113Z,1023.4
2023-03-01T11:20:52.414Z,1023.3
2023-03-01T11:21:52.486Z,1023.3
2023-03-01T11:22:52.458Z,1023.3
2023-03-01T11:23:52.457Z,1023.3
2023-03-01T11:25:09.845Z,1023.3
2023-03-01T11:25:52.491Z,1023.2
2023-03-01T11:26:52.487Z,1023.3
2023-03-01T11:27:52.496Z,1023.3
2023-03-01T11:28:52.511Z,1023.2
2023-03-01T11:29:52.532Z,1023.3
2023-03-01T11:31:08.496Z,1023.2
2023-03-01T11:31:58.174Z,1023.3
2023-03-01T11:32:52.776Z,1023.3
2023-03-01T11:33:52.575Z,1023.3
2023-03-01T11:34:52.575Z,1023.3
2023-03-01T11:35:52.618Z,1023.3
2023-03-01T11:36:52.612Z,1023.2
2023-03-01T11:37:52.614Z,1023.2
2023-03-01T11:38:52.758Z,1023.1
2023-03-01T11:39:52.630Z,1023.2
2023-03-01T11:40:56.160Z,1023.2
2023-03-01T11:41:52.645Z,1023.1
2023-03-01T11:42:52.774Z,1023.2
2023-03-01T11:43:52.724Z,1023.1
2023-03-01T11:44:52.691Z,1023.0
2023-03-01T11:45:52.715Z,1023.1
2023-03-01T11:46:53.002Z,1023.1
2023-03-01T11:47:52.809Z,1023.1
2023-03-01T11:48:52.758Z,1023.0
2023-03-01T11:49:52.766Z,1023.1
2023-03-01T11:50:52.879Z,1023.1
2023-03-01T11:51:52.796Z,1023.1
2023-03-01T11:52:52.807Z,1023.1
2023-03-01T11:53:52.828Z,1023.1
2023-03-01T11:54:52.829Z,1023.0
2023-03-01T11:55:52.866Z,1023.0
2023-03-01T11:56:52.899Z,1023.0
2023-03-01T11:57:53.005Z,1023.0
2023-03-01T11:58:52.909Z,1023.1
2023-03-01T11:59:52.932Z,1023.0
2023-03-01T12:00:52.912Z,1023.0
2023-03-01T12:01:52.992Z,1022.9
2023-03-01T12:02:52.951Z,1023.0
2023-03-01T12:03:53.045Z,1023.0
2023-03-01T12:04:52.999Z,1023.0
2023-03-01T12:05:52.978Z,1023.0
2023-03-01T12:06:52.993Z,1023.0
2023-03-01T12:07:53.013Z,1023.0
2023-03-01T12:08:53.017Z,1022.9
2023-03-01T12:09:53.021Z,1023.0
2023-03-01T12:10:53.030Z,1023.0
2023-03-01T12:11:53.054Z,1023.1
2023-03-01T12:12:53.079Z,1022.9
2023-03-01T12:13:53.157Z,1023.0
2023-03-01T12:14:53.119Z,1023.1
2023-03-01T12:15:53.170Z,1022.9
2023-03-01T12:16:53.146Z,1023.0
2023-03-01T12:17:53.134Z,1023.0
2023-03-01T12:18:53.137Z,1023.0
2023-03-01T12:19:53.213Z,1023.0
2023-03-01T12:20:53.248Z,1022.9
2023-03-01T12:21:53.191Z,1022.9
2023-03-01T12:22:53.214Z,1022.9
2023-03-01T12:23:53.244Z,1022.9
2023-03-01T12:24:53.232Z,1022.9
2023-03-01T12:25:53.254Z,1022.8
2023-03-01T12:26:53.256Z,1022.9
2023-03-01T12:27:53.283Z,1022.8
2023-03-01T12:28:53.301Z,1022.9
2023-03-01T12:29:53.307Z,1022.8
2023-03-01T12:30:53.308Z,1022.9
2023-03-01T12:31:53.633Z,1022.8
2023-03-01T12:32:53.478Z,1022.8
2023-03-01T12:33:53.336Z,1022.8
2023-03-01T12:34:53.357Z,1022.8
2023-03-01T12:35:53.409Z,1022.7
2023-03-01T12:36:53.366Z,1022.7
2023-03-01T12:37:53.379Z,1022.7
2023-03-01T12:38:53.394Z,1022.7
2023-03-01T12:39:53.392Z,1022.7
2023-03-01T12:40:53.406Z,1022.7
2023-03-01T12:41:53.425Z,1022.6
2023-03-01T12:42:53.440Z,1022.7
2023-03-01T12:43:53.449Z,1022.6
2023-03-01T12:44:53.463Z,1022.6
2023-03-01T12:45:53.608Z,1022.6